To NAV CANADA Home Page Login to a new session Search on AWWS site Feedback and Comments Disclaimer Vers la page française équivalente Tips FAQ What's new on the site To the Forecasts and Observations / NOTAM section To "File a Flight Plan" website Publications and other links Update of the User's profile FIC Telephone Numbers My Weather Data Folder Route Weather Data Regional Weather Data Local Weather Data To the Forecasts and Observations / NOTAM section
Request Generated 05/29/2015 at 08:04:17 UTC . Weather information available at that time is displayed.

METAR/TAF

EDMONTON/EDMONTON INTL/AB    

METAR CYEG 290800Z 11009KT 15SM BKN250 05/M03 A3030 RMK CI5 SLP280=
METAR CYEG 290700Z 11010KT 15SM BKN250 06/M03 A3031 RMK CI7 SLP282=
METAR CYEG 290600Z 12009KT 15SM BKN250 07/M03 A3030 RMK CI7 SLP281=

TAF CYEG 290539Z 2906/3006 13012KT P6SM BKN240
FM291800 11010KT P6SM BKN080 TEMPO 2921/3001 P6SM -SHRA BKN060
FM300100 12010KT P6SM BKN050
RMK NXT FCST BY 290900Z=
Your time UTC time
Weather data provided by Environment Canada and NAV CANADA